sensor_id;sensor_type;location;lat;lon;timestamp;P1;durP1;ratioP1;P2;durP2;ratioP2
19836;SDS011;10079;55.740;37.662;2023-06-01T00:01:20;11.40;;;4.50;;
19836;SDS011;10079;55.740;37.662;2023-06-01T00:04:01;8.63;;;3.50;;
19836;SDS011;10079;55.740;37.662;2023-06-01T00:06:42;7.60;;;3.57;;
19836;SDS011;10079;55.740;37.662;2023-06-01T00:09:34;4.90;;;3.30;;
19836;SDS011;10079;55.740;37.662;2023-06-01T00:12:15;7.17;;;3.43;;
19836;SDS011;10079;55.740;37.662;2023-06-01T00:15:08;4.67;;;3.47;;
19836;SDS011;10079;55.740;37.662;2023-06-01T00:17:52;5.47;;;3.47;;
19836;SDS011;10079;55.740;37.662;2023-06-01T00:20:45;4.63;;;3.10;;
19836;SDS011;10079;55.740;37.662;2023-06-01T00:23:25;5.07;;;3.03;;
19836;SDS011;10079;55.740;37.662;2023-06-01T00:26:15;6.43;;;3.23;;
19836;SDS011;10079;55.740;37.662;2023-06-01T00:28:55;6.00;;;3.00;;
19836;SDS011;10079;55.740;37.662;2023-06-01T00:31:36;7.20;;;3.50;;
19836;SDS011;10079;55.740;37.662;2023-06-01T00:34:29;8.00;;;2.93;;
19836;SDS011;10079;55.740;37.662;2023-06-01T00:37:21;3.83;;;3.20;;
19836;SDS011;10079;55.740;37.662;2023-06-01T00:40:06;5.23;;;2.93;;
19836;SDS011;10079;55.740;37.662;2023-06-01T00:42:48;7.63;;;3.13;;
19836;SDS011;10079;55.740;37.662;2023-06-01T00:45:40;7.60;;;3.33;;
19836;SDS011;10079;55.740;37.662;2023-06-01T00:48:21;9.27;;;3.30;;
19836;SDS011;10079;55.740;37.662;2023-06-01T00:51:05;7.73;;;3.30;;
19836;SDS011;10079;55.740;37.662;2023-06-01T00:53:55;6.13;;;3.50;;
19836;SDS011;10079;55.740;37.662;2023-06-01T00:56:39;4.77;;;3.30;;
19836;SDS011;10079;55.740;37.662;2023-06-01T00:59:24;6.17;;;3.40;;
19836;SDS011;10079;55.740;37.662;2023-06-01T01:02:05;7.83;;;3.20;;
19836;SDS011;10079;55.740;37.662;2023-06-01T01:04:47;6.77;;;2.87;;
19836;SDS011;10079;55.740;37.662;2023-06-01T01:18:07;7.43;;;3.33;;
19836;SDS011;10079;55.740;37.662;2023-06-01T01:20:49;3.57;;;2.60;;
19836;SDS011;10079;55.740;37.662;2023-06-01T01:26:41;5.83;;;3.20;;
19836;SDS011;10079;55.740;37.662;2023-06-01T01:29:26;6.33;;;3.33;;
19836;SDS011;10079;55.740;37.662;2023-06-01T01:32:10;4.23;;;2.83;;
19836;SDS011;10079;55.740;37.662;2023-06-01T01:34:51;4.13;;;2.77;;
19836;SDS011;10079;55.740;37.662;2023-06-01T01:37:54;5.60;;;2.80;;
19836;SDS011;10079;55.740;37.662;2023-06-01T01:40:38;6.13;;;2.83;;
19836;SDS011;10079;55.740;37.662;2023-06-01T01:43:20;5.20;;;2.83;;
19836;SDS011;10079;55.740;37.662;2023-06-01T01:46:03;4.13;;;2.60;;
19836;SDS011;10079;55.740;37.662;2023-06-01T01:48:50;4.00;;;2.73;;
19836;SDS011;10079;55.740;37.662;2023-06-01T01:51:49;5.37;;;2.93;;
19836;SDS011;10079;55.740;37.662;2023-06-01T01:54:27;7.40;;;2.87;;
19836;SDS011;10079;55.740;37.662;2023-06-01T01:57:07;5.87;;;3.03;;
19836;SDS011;10079;55.740;37.662;2023-06-01T02:00:01;6.40;;;2.90;;
19836;SDS011;10079;55.740;37.662;2023-06-01T02:02:46;7.40;;;2.73;;
19836;SDS011;10079;55.740;37.662;2023-06-01T02:05:26;5.17;;;2.63;;
19836;SDS011;10079;55.740;37.662;2023-06-01T02:08:10;5.07;;;2.90;;
19836;SDS011;10079;55.740;37.662;2023-06-01T02:10:54;6.93;;;3.20;;
19836;SDS011;10079;55.740;37.662;2023-06-01T02:13:35;6.07;;;2.80;;
19836;SDS011;10079;55.740;37.662;2023-06-01T02:16:16;3.60;;;2.50;;
19836;SDS011;10079;55.740;37.662;2023-06-01T02:18:56;5.67;;;2.87;;
19836;SDS011;10079;55.740;37.662;2023-06-01T02:21:37;4.53;;;2.70;;
19836;SDS011;10079;55.740;37.662;2023-06-01T02:24:18;4.83;;;3.10;;
19836;SDS011;10079;55.740;37.662;2023-06-01T02:26:58;4.17;;;2.50;;
19836;SDS011;10079;55.740;37.662;2023-06-01T02:29:42;6.60;;;2.80;;
19836;SDS011;10079;55.740;37.662;2023-06-01T02:32:26;4.60;;;3.33;;
19836;SDS011;10079;55.740;37.662;2023-06-01T02:35:19;6.37;;;3.30;;
19836;SDS011;10079;55.740;37.662;2023-06-01T02:38:12;4.87;;;2.77;;
19836;SDS011;10079;55.740;37.662;2023-06-01T02:41:04;4.83;;;2.97;;
19836;SDS011;10079;55.740;37.662;2023-06-01T02:43:57;3.90;;;2.70;;
19836;SDS011;10079;55.740;37.662;2023-06-01T02:46:41;5.90;;;3.20;;
19836;SDS011;10079;55.740;37.662;2023-06-01T02:49:25;7.33;;;2.80;;
19836;SDS011;10079;55.740;37.662;2023-06-01T02:52:06;4.43;;;2.50;;
19836;SDS011;10079;55.740;37.662;2023-06-01T02:54:47;5.00;;;2.40;;
19836;SDS011;10079;55.740;37.662;2023-06-01T02:57:39;4.37;;;2.43;;
19836;SDS011;10079;55.740;37.662;2023-06-01T03:00:20;3.40;;;2.57;;
19836;SDS011;10079;55.740;37.662;2023-06-01T03:03:12;4.80;;;2.60;;
19836;SDS011;10079;55.740;37.662;2023-06-01T03:06:05;4.40;;;2.67;;
19836;SDS011;10079;55.740;37.662;2023-06-01T03:08:47;3.97;;;2.80;;
19836;SDS011;10079;55.740;37.662;2023-06-01T03:11:27;3.43;;;2.07;;
19836;SDS011;10079;55.740;37.662;2023-06-01T03:14:11;2.87;;;2.20;;
19836;SDS011;10079;55.740;37.662;2023-06-01T03:16:52;3.60;;;2.03;;
19836;SDS011;10079;55.740;37.662;2023-06-01T03:19:32;2.97;;;2.50;;
19836;SDS011;10079;55.740;37.662;2023-06-01T03:22:13;5.27;;;2.43;;
19836;SDS011;10079;55.740;37.662;2023-06-01T03:24:57;3.10;;;2.20;;
19836;SDS011;10079;55.740;37.662;2023-06-01T03:27:38;4.87;;;2.27;;
19836;SDS011;10079;55.740;37.662;2023-06-01T03:30:27;4.43;;;2.23;;
19836;SDS011;10079;55.740;37.662;2023-06-01T03:33:16;4.20;;;2.70;;
19836;SDS011;10079;55.740;37.662;2023-06-01T03:35:57;6.10;;;2.73;;
19836;SDS011;10079;55.740;37.662;2023-06-01T03:38:41;4.00;;;2.40;;
19836;SDS011;10079;55.740;37.662;2023-06-01T03:41:22;4.13;;;2.50;;
19836;SDS011;10079;55.740;37.662;2023-06-01T03:44:07;4.43;;;2.47;;
19836;SDS011;10079;55.740;37.662;2023-06-01T03:46:47;7.90;;;3.37;;
19836;SDS011;10079;55.740;37.662;2023-06-01T03:49:28;5.90;;;2.77;;
19836;SDS011;10079;55.740;37.662;2023-06-01T03:52:09;3.90;;;2.40;;
19836;SDS011;10079;55.740;37.662;2023-06-01T03:55:02;5.27;;;3.17;;
19836;SDS011;10079;55.740;37.662;2023-06-01T03:57:42;5.70;;;3.23;;
19836;SDS011;10079;55.740;37.662;2023-06-01T04:00:27;6.60;;;2.87;;
19836;SDS011;10079;55.740;37.662;2023-06-01T04:03:07;5.63;;;2.90;;
19836;SDS011;10079;55.740;37.662;2023-06-01T04:05:48;4.90;;;3.00;;
19836;SDS011;10079;55.740;37.662;2023-06-01T04:08:29;5.83;;;2.63;;
19836;SDS011;10079;55.740;37.662;2023-06-01T04:11:22;7.33;;;2.77;;
19836;SDS011;10079;55.740;37.662;2023-06-01T04:14:14;8.63;;;3.00;;
19836;SDS011;10079;55.740;37.662;2023-06-01T04:16:58;6.03;;;2.97;;
19836;SDS011;10079;55.740;37.662;2023-06-01T04:19:39;6.17;;;2.90;;
19836;SDS011;10079;55.740;37.662;2023-06-01T04:22:32;6.10;;;2.87;;
19836;SDS011;10079;55.740;37.662;2023-06-01T04:25:14;6.70;;;3.07;;
19836;SDS011;10079;55.740;37.662;2023-06-01T04:38:25;3.47;;;2.40;;
19836;SDS011;10079;55.740;37.662;2023-06-01T04:41:09;6.07;;;2.37;;
19836;SDS011;10079;55.740;37.662;2023-06-01T04:43:50;3.70;;;2.30;;
19836;SDS011;10079;55.740;37.662;2023-06-01T04:46:31;4.10;;;2.12;;
19836;SDS011;10079;55.740;37.662;2023-06-01T04:49:12;5.20;;;2.22;;
19836;SDS011;10079;55.740;37.662;2023-06-01T04:52:04;4.60;;;2.28;;
19836;SDS011;10079;55.740;37.662;2023-06-01T04:54:45;6.12;;;2.40;;
19836;SDS011;10079;55.740;37.662;2023-06-01T04:57:26;3.75;;;2.30;;
19836;SDS011;10079;55.740;37.662;2023-06-01T05:00:07;5.12;;;2.70;;
19836;SDS011;10079;55.740;37.662;2023-06-01T05:02:52;4.18;;;2.70;;
19836;SDS011;10079;55.740;37.662;2023-06-01T05:08:28;4.05;;;2.70;;
19836;SDS011;10079;55.740;37.662;2023-06-01T05:11:20;4.68;;;2.10;;
19836;SDS011;10079;55.740;37.662;2023-06-01T05:14:04;6.65;;;2.85;;
19836;SDS011;10079;55.740;37.662;2023-06-01T05:16:57;4.87;;;2.95;;
19836;SDS011;10079;55.740;37.662;2023-06-01T05:19:46;4.82;;;2.60;;
19836;SDS011;10079;55.740;37.662;2023-06-01T05:33:09;2.97;;;2.30;;
19836;SDS011;10079;55.740;37.662;2023-06-01T05:57:14;3.65;;;3.15;;
19836;SDS011;10079;55.740;37.662;2023-06-01T06:10:29;2.60;;;2.00;;
19836;SDS011;10079;55.740;37.662;2023-06-01T06:13:13;5.15;;;2.65;;
19836;SDS011;10079;55.740;37.662;2023-06-01T06:15:54;3.05;;;2.12;;
19836;SDS011;10079;55.740;37.662;2023-06-01T06:18:35;4.35;;;2.50;;
19836;SDS011;10079;55.740;37.662;2023-06-01T06:21:16;6.28;;;3.03;;
19836;SDS011;10079;55.740;37.662;2023-06-01T06:23:56;4.15;;;1.92;;
19836;SDS011;10079;55.740;37.662;2023-06-01T06:26:37;2.87;;;1.80;;
19836;SDS011;10079;55.740;37.662;2023-06-01T06:29:30;4.05;;;2.20;;
19836;SDS011;10079;55.740;37.662;2023-06-01T06:32:23;5.93;;;2.35;;
19836;SDS011;10079;55.740;37.662;2023-06-01T06:35:08;5.10;;;2.60;;
19836;SDS011;10079;55.740;37.662;2023-06-01T06:37:52;4.62;;;2.35;;
19836;SDS011;10079;55.740;37.662;2023-06-01T06:40:33;3.97;;;2.00;;
19836;SDS011;10079;55.740;37.662;2023-06-01T06:43:14;4.03;;;2.15;;
19836;SDS011;10079;55.740;37.662;2023-06-01T06:45:58;6.07;;;2.20;;
19836;SDS011;10079;55.740;37.662;2023-06-01T06:48:49;5.03;;;2.50;;
19836;SDS011;10079;55.740;37.662;2023-06-01T06:51:29;3.22;;;2.10;;
19836;SDS011;10079;55.740;37.662;2023-06-01T06:54:11;8.60;;;2.50;;
19836;SDS011;10079;55.740;37.662;2023-06-01T06:56:51;2.80;;;1.80;;
19836;SDS011;10079;55.740;37.662;2023-06-01T06:59:32;3.75;;;2.10;;
19836;SDS011;10079;55.740;37.662;2023-06-01T07:02:13;4.10;;;1.95;;
19836;SDS011;10079;55.740;37.662;2023-06-01T07:04:54;5.43;;;2.30;;
19836;SDS011;10079;55.740;37.662;2023-06-01T07:07:36;4.57;;;2.10;;
19836;SDS011;10079;55.740;37.662;2023-06-01T07:10:25;4.18;;;1.98;;
19836;SDS011;10079;55.740;37.662;2023-06-01T07:13:06;2.78;;;1.60;;
19836;SDS011;10079;55.740;37.662;2023-06-01T07:15:52;5.82;;;2.42;;
19836;SDS011;10079;55.740;37.662;2023-06-01T07:18:43;3.60;;;2.00;;
19836;SDS011;10079;55.740;37.662;2023-06-01T07:21:36;6.25;;;2.12;;
19836;SDS011;10079;55.740;37.662;2023-06-01T07:24:17;7.20;;;2.10;;
19836;SDS011;10079;55.740;37.662;2023-06-01T07:26:58;4.50;;;1.90;;
19836;SDS011;10079;55.740;37.662;2023-06-01T07:29:39;3.05;;;2.05;;
19836;SDS011;10079;55.740;37.662;2023-06-01T07:32:22;3.95;;;2.03;;
19836;SDS011;10079;55.740;37.662;2023-06-01T07:35:04;7.53;;;2.70;;
19836;SDS011;10079;55.740;37.662;2023-06-01T07:37:58;3.65;;;1.70;;
19836;SDS011;10079;55.740;37.662;2023-06-01T07:40:51;2.80;;;1.70;;
19836;SDS011;10079;55.740;37.662;2023-06-01T07:43:36;6.80;;;2.10;;
19836;SDS011;10079;55.740;37.662;2023-06-01T07:46:20;6.00;;;1.98;;
19836;SDS011;10079;55.740;37.662;2023-06-01T07:49:01;3.80;;;1.75;;
19836;SDS011;10079;55.740;37.662;2023-06-01T07:51:43;18.52;;;2.95;;
19836;SDS011;10079;55.740;37.662;2023-06-01T07:54:27;6.12;;;2.28;;
19836;SDS011;10079;55.740;37.662;2023-06-01T07:57:11;3.80;;;2.20;;
19836;SDS011;10079;55.740;37.662;2023-06-01T07:59:55;3.87;;;1.62;;
19836;SDS011;10079;55.740;37.662;2023-06-01T08:02:36;4.70;;;2.30;;
19836;SDS011;10079;55.740;37.662;2023-06-01T08:05:28;4.28;;;2.03;;
19836;SDS011;10079;55.740;37.662;2023-06-01T08:08:09;6.55;;;1.60;;
19836;SDS011;10079;55.740;37.662;2023-06-01T08:21:27;5.35;;;2.10;;
19836;SDS011;10079;55.740;37.662;2023-06-01T08:24:08;2.37;;;1.90;;
19836;SDS011;10079;55.740;37.662;2023-06-01T08:27:00;2.83;;;1.90;;
19836;SDS011;10079;55.740;37.662;2023-06-01T08:29:41;2.37;;;1.80;;
19836;SDS011;10079;55.740;37.662;2023-06-01T08:32:21;2.50;;;1.70;;
19836;SDS011;10079;55.740;37.662;2023-06-01T08:35:06;5.22;;;2.30;;
19836;SDS011;10079;55.740;37.662;2023-06-01T08:37:47;4.60;;;1.75;;
19836;SDS011;10079;55.740;37.662;2023-06-01T08:50:03;4.72;;;2.00;;
19836;SDS011;10079;55.740;37.662;2023-06-01T08:52:45;2.47;;;1.90;;
19836;SDS011;10079;55.740;37.662;2023-06-01T08:55:25;3.58;;;1.70;;
19836;SDS011;10079;55.740;37.662;2023-06-01T08:58:06;3.47;;;2.10;;
19836;SDS011;10079;55.740;37.662;2023-06-01T09:00:50;3.70;;;1.80;;
19836;SDS011;10079;55.740;37.662;2023-06-01T09:03:31;4.10;;;1.80;;
19836;SDS011;10079;55.740;37.662;2023-06-01T09:06:11;4.47;;;1.95;;
19836;SDS011;10079;55.740;37.662;2023-06-01T09:08:56;9.10;;;2.67;;
19836;SDS011;10079;55.740;37.662;2023-06-01T09:11:37;5.12;;;1.92;;
19836;SDS011;10079;55.740;37.662;2023-06-01T09:17:26;4.60;;;1.62;;
19836;SDS011;10079;55.740;37.662;2023-06-01T09:20:11;4.20;;;2.10;;
19836;SDS011;10079;55.740;37.662;2023-06-01T09:22:52;2.30;;;2.00;;
19836;SDS011;10079;55.740;37.662;2023-06-01T09:25:33;4.65;;;3.35;;
19836;SDS011;10079;55.740;37.662;2023-06-01T09:28:13;4.45;;;2.20;;
19836;SDS011;10079;55.740;37.662;2023-06-01T09:30:54;4.12;;;1.80;;
19836;SDS011;10079;55.740;37.662;2023-06-01T09:33:38;7.30;;;2.17;;
19836;SDS011;10079;55.740;37.662;2023-06-01T09:36:23;4.78;;;2.05;;
19836;SDS011;10079;55.740;37.662;2023-06-01T09:39:05;4.93;;;2.17;;
19836;SDS011;10079;55.740;37.662;2023-06-01T09:41:46;4.22;;;1.75;;
19836;SDS011;10079;55.740;37.662;2023-06-01T09:44:29;3.87;;;2.60;;
19836;SDS011;10079;55.740;37.662;2023-06-01T09:47:21;5.30;;;1.95;;
19836;SDS011;10079;55.740;37.662;2023-06-01T09:50:02;3.47;;;2.20;;
19836;SDS011;10079;55.740;37.662;2023-06-01T09:52:43;4.53;;;2.22;;
19836;SDS011;10079;55.740;37.662;2023-06-01T09:55:29;4.15;;;2.17;;
19836;SDS011;10079;55.740;37.662;2023-06-01T09:58:18;2.83;;;1.90;;
19836;SDS011;10079;55.740;37.662;2023-06-01T10:00:59;5.75;;;2.37;;
19836;SDS011;10079;55.740;37.662;2023-06-01T10:03:41;2.90;;;2.15;;
19836;SDS011;10079;55.740;37.662;2023-06-01T10:06:32;3.37;;;1.90;;
19836;SDS011;10079;55.740;37.662;2023-06-01T10:09:23;3.37;;;1.87;;
19836;SDS011;10079;55.740;37.662;2023-06-01T10:12:06;4.25;;;2.22;;
19836;SDS011;10079;55.740;37.662;2023-06-01T10:15:00;5.32;;;2.25;;
19836;SDS011;10079;55.740;37.662;2023-06-01T10:18:30;2.95;;;2.05;;
19836;SDS011;10079;55.740;37.662;2023-06-01T10:21:11;2.47;;;1.60;;
19836;SDS011;10079;55.740;37.662;2023-06-01T10:24:04;3.80;;;1.55;;
19836;SDS011;10079;55.740;37.662;2023-06-01T10:29:45;3.87;;;1.87;;
19836;SDS011;10079;55.740;37.662;2023-06-01T10:38:36;2.30;;;1.73;;
19836;SDS011;10079;55.740;37.662;2023-06-01T10:41:26;2.40;;;1.60;;
19836;SDS011;10079;55.740;37.662;2023-06-01T10:44:14;4.23;;;2.00;;
19836;SDS011;10079;55.740;37.662;2023-06-01T10:46:50;3.03;;;1.70;;
19836;SDS011;10079;55.740;37.662;2023-06-01T11:06:23;4.28;;;1.87;;
19836;SDS011;10079;55.740;37.662;2023-06-01T11:09:06;5.07;;;2.10;;
19836;SDS011;10079;55.740;37.662;2023-06-01T11:11:57;4.95;;;2.00;;
19836;SDS011;10079;55.740;37.662;2023-06-01T11:15:08;6.72;;;2.75;;
19836;SDS011;10079;55.740;37.662;2023-06-01T11:17:52;3.50;;;1.70;;
19836;SDS011;10079;55.740;37.662;2023-06-01T11:20:37;3.28;;;2.05;;
19836;SDS011;10079;55.740;37.662;2023-06-01T11:23:30;2.77;;;2.00;;
19836;SDS011;10079;55.740;37.662;2023-06-01T11:26:15;5.37;;;2.20;;
19836;SDS011;10079;55.740;37.662;2023-06-01T11:29:02;3.23;;;1.57;;
19836;SDS011;10079;55.740;37.662;2023-06-01T11:31:43;1.77;;;1.40;;
19836;SDS011;10079;55.740;37.662;2023-06-01T11:34:30;4.53;;;2.00;;
19836;SDS011;10079;55.740;37.662;2023-06-01T11:47:51;3.37;;;1.70;;
19836;SDS011;10079;55.740;37.662;2023-06-01T11:50:32;4.07;;;1.92;;
19836;SDS011;10079;55.740;37.662;2023-06-01T11:53:25;3.03;;;1.80;;
19836;SDS011;10079;55.740;37.662;2023-06-01T11:56:05;2.97;;;1.98;;
19836;SDS011;10079;55.740;37.662;2023-06-01T11:58:46;2.77;;;1.90;;
19836;SDS011;10079;55.740;37.662;2023-06-01T12:01:42;3.10;;;1.90;;
19836;SDS011;10079;55.740;37.662;2023-06-01T12:04:34;4.37;;;2.20;;
19836;SDS011;10079;55.740;37.662;2023-06-01T12:07:15;4.77;;;1.97;;
19836;SDS011;10079;55.740;37.662;2023-06-01T12:09:56;2.50;;;1.90;;
19836;SDS011;10079;55.740;37.662;2023-06-01T12:12:37;3.47;;;1.90;;
19836;SDS011;10079;55.740;37.662;2023-06-01T12:15:18;2.53;;;1.80;;
19836;SDS011;10079;55.740;37.662;2023-06-01T12:17:59;3.47;;;1.87;;
19836;SDS011;10079;55.740;37.662;2023-06-01T12:20:40;5.57;;;2.03;;
19836;SDS011;10079;55.740;37.662;2023-06-01T12:23:20;3.00;;;1.80;;
19836;SDS011;10079;55.740;37.662;2023-06-01T12:26:01;4.10;;;2.03;;
19836;SDS011;10079;55.740;37.662;2023-06-01T12:28:47;3.00;;;1.90;;
19836;SDS011;10079;55.740;37.662;2023-06-01T12:31:30;3.93;;;1.97;;
19836;SDS011;10079;55.740;37.662;2023-06-01T12:34:15;3.30;;;2.03;;
19836;SDS011;10079;55.740;37.662;2023-06-01T12:40:02;4.97;;;2.07;;
19836;SDS011;10079;55.740;37.662;2023-06-01T12:42:43;3.43;;;2.00;;
19836;SDS011;10079;55.740;37.662;2023-06-01T12:45:24;4.57;;;2.30;;
19836;SDS011;10079;55.740;37.662;2023-06-01T13:02:00;5.53;;;2.30;;
19836;SDS011;10079;55.740;37.662;2023-06-01T13:04:53;4.22;;;1.98;;
19836;SDS011;10079;55.740;37.662;2023-06-01T13:07:43;4.03;;;2.13;;
19836;SDS011;10079;55.740;37.662;2023-06-01T13:10:32;4.80;;;1.90;;
19836;SDS011;10079;55.740;37.662;2023-06-01T13:13:24;3.17;;;2.07;;
19836;SDS011;10079;55.740;37.662;2023-06-01T13:16:05;4.03;;;1.90;;
19836;SDS011;10079;55.740;37.662;2023-06-01T13:18:50;4.17;;;1.90;;
19836;SDS011;10079;55.740;37.662;2023-06-01T13:21:34;2.83;;;1.80;;
19836;SDS011;10079;55.740;37.662;2023-06-01T13:24:18;3.80;;;1.80;;
19836;SDS011;10079;55.740;37.662;2023-06-01T13:27:13;4.93;;;2.53;;
19836;SDS011;10079;55.740;37.662;2023-06-01T13:29:54;6.57;;;3.60;;
19836;SDS011;10079;55.740;37.662;2023-06-01T13:32:38;4.97;;;2.33;;
19836;SDS011;10079;55.740;37.662;2023-06-01T13:35:31;5.17;;;2.20;;
19836;SDS011;10079;55.740;37.662;2023-06-01T13:38:23;4.87;;;2.10;;
19836;SDS011;10079;55.740;37.662;2023-06-01T13:41:16;3.77;;;1.97;;
19836;SDS011;10079;55.740;37.662;2023-06-01T13:44:00;2.77;;;1.90;;
19836;SDS011;10079;55.740;37.662;2023-06-01T13:46:44;4.60;;;2.30;;
19836;SDS011;10079;55.740;37.662;2023-06-01T13:59:55;2.85;;;1.67;;
19836;SDS011;10079;55.740;37.662;2023-06-01T14:02:36;6.70;;;2.12;;
19836;SDS011;10079;55.740;37.662;2023-06-01T14:05:20;6.60;;;2.27;;
19836;SDS011;10079;55.740;37.662;2023-06-01T14:08:01;9.23;;;4.97;;
19836;SDS011;10079;55.740;37.662;2023-06-01T14:10:42;5.37;;;2.80;;
19836;SDS011;10079;55.740;37.662;2023-06-01T14:13:31;6.47;;;2.20;;
19836;SDS011;10079;55.740;37.662;2023-06-01T14:16:11;6.40;;;2.37;;
19836;SDS011;10079;55.740;37.662;2023-06-01T14:18:55;5.07;;;1.87;;
19836;SDS011;10079;55.740;37.662;2023-06-01T14:21:48;5.23;;;2.20;;
19836;SDS011;10079;55.740;37.662;2023-06-01T14:24:29;2.90;;;1.87;;
19836;SDS011;10079;55.740;37.662;2023-06-01T14:27:18;3.70;;;2.23;;
19836;SDS011;10079;55.740;37.662;2023-06-01T14:30:05;3.17;;;1.77;;
19836;SDS011;10079;55.740;37.662;2023-06-01T14:32:53;3.20;;;1.97;;
19836;SDS011;10079;55.740;37.662;2023-06-01T14:35:35;5.57;;;1.90;;
19836;SDS011;10079;55.740;37.662;2023-06-01T14:38:20;2.97;;;1.87;;
19836;SDS011;10079;55.740;37.662;2023-06-01T14:41:04;4.30;;;2.20;;
19836;SDS011;10079;55.740;37.662;2023-06-01T14:43:45;5.43;;;1.80;;
19836;SDS011;10079;55.740;37.662;2023-06-01T14:46:25;4.13;;;2.07;;
19836;SDS011;10079;55.740;37.662;2023-06-01T14:49:06;4.30;;;2.17;;
19836;SDS011;10079;55.740;37.662;2023-06-01T14:51:47;3.67;;;2.10;;
19836;SDS011;10079;55.740;37.662;2023-06-01T14:54:39;5.37;;;2.33;;
19836;SDS011;10079;55.740;37.662;2023-06-01T14:57:23;4.43;;;2.40;;
19836;SDS011;10079;55.740;37.662;2023-06-01T15:00:13;3.20;;;2.03;;
19836;SDS011;10079;55.740;37.662;2023-06-01T15:03:07;5.37;;;2.43;;
19836;SDS011;10079;55.740;37.662;2023-06-01T15:06:00;5.07;;;2.17;;
19836;SDS011;10079;55.740;37.662;2023-06-01T15:08:41;5.00;;;2.57;;
19836;SDS011;10079;55.740;37.662;2023-06-01T15:11:22;3.93;;;2.17;;
19836;SDS011;10079;55.740;37.662;2023-06-01T15:14:03;3.80;;;2.17;;
19836;SDS011;10079;55.740;37.662;2023-06-01T15:16:55;6.80;;;2.40;;
19836;SDS011;10079;55.740;37.662;2023-06-01T15:19:36;3.97;;;1.97;;
19836;SDS011;10079;55.740;37.662;2023-06-01T15:22:17;5.67;;;2.10;;
19836;SDS011;10079;55.740;37.662;2023-06-01T15:24:58;4.87;;;2.20;;
19836;SDS011;10079;55.740;37.662;2023-06-01T15:27:42;8.07;;;2.47;;
19836;SDS011;10079;55.740;37.662;2023-06-01T15:30:24;3.63;;;2.23;;
19836;SDS011;10079;55.740;37.662;2023-06-01T15:33:14;3.17;;;1.93;;
19836;SDS011;10079;55.740;37.662;2023-06-01T15:35:58;5.83;;;2.47;;
19836;SDS011;10079;55.740;37.662;2023-06-01T15:38:51;2.83;;;2.03;;
19836;SDS011;10079;55.740;37.662;2023-06-01T15:41:35;4.27;;;2.00;;
19836;SDS011;10079;55.740;37.662;2023-06-01T15:44:19;4.50;;;2.30;;
19836;SDS011;10079;55.740;37.662;2023-06-01T15:47:00;5.70;;;2.20;;
19836;SDS011;10079;55.740;37.662;2023-06-01T15:49:44;3.60;;;2.10;;
19836;SDS011;10079;55.740;37.662;2023-06-01T15:52:28;3.87;;;2.30;;
19836;SDS011;10079;55.740;37.662;2023-06-01T15:55:09;5.10;;;2.40;;
19836;SDS011;10079;55.740;37.662;2023-06-01T15:57:50;5.80;;;2.10;;
19836;SDS011;10079;55.740;37.662;2023-06-01T16:00:30;4.37;;;2.30;;
19836;SDS011;10079;55.740;37.662;2023-06-01T16:03:23;7.90;;;2.30;;
19836;SDS011;10079;55.740;37.662;2023-06-01T16:16:40;6.93;;;2.73;;
19836;SDS011;10079;55.740;37.662;2023-06-01T16:19:21;4.43;;;2.10;;
19836;SDS011;10079;55.740;37.662;2023-06-01T16:22:10;5.30;;;2.17;;
19836;SDS011;10079;55.740;37.662;2023-06-01T16:25:03;7.07;;;2.60;;
19836;SDS011;10079;55.740;37.662;2023-06-01T16:27:44;4.73;;;2.50;;
19836;SDS011;10079;55.740;37.662;2023-06-01T16:30:28;4.67;;;2.30;;
19836;SDS011;10079;55.740;37.662;2023-06-01T16:33:11;4.70;;;2.23;;
19836;SDS011;10079;55.740;37.662;2023-06-01T16:35:52;3.93;;;2.50;;
19836;SDS011;10079;55.740;37.662;2023-06-01T16:38:47;6.07;;;2.57;;
19836;SDS011;10079;55.740;37.662;2023-06-01T16:41:32;9.97;;;2.37;;
19836;SDS011;10079;55.740;37.662;2023-06-01T16:44:13;4.60;;;2.50;;
19836;SDS011;10079;55.740;37.662;2023-06-01T16:48:10;4.17;;;3.10;;
19836;SDS011;10079;55.740;37.662;2023-06-01T16:50:51;6.83;;;2.87;;
19836;SDS011;10079;55.740;37.662;2023-06-01T16:56:59;5.17;;;2.70;;
19836;SDS011;10079;55.740;37.662;2023-06-01T16:59:44;4.17;;;2.47;;
19836;SDS011;10079;55.740;37.662;2023-06-01T17:02:25;5.63;;;2.43;;
19836;SDS011;10079;55.740;37.662;2023-06-01T17:05:09;5.53;;;2.40;;
19836;SDS011;10079;55.740;37.662;2023-06-01T17:07:59;6.10;;;2.70;;
19836;SDS011;10079;55.740;37.662;2023-06-01T17:10:39;2.90;;;2.17;;
19836;SDS011;10079;55.740;37.662;2023-06-01T17:13:29;5.50;;;2.70;;
19836;SDS011;10079;55.740;37.662;2023-06-01T17:16:11;3.13;;;2.23;;
19836;SDS011;10079;55.740;37.662;2023-06-01T17:18:56;6.53;;;3.30;;
19836;SDS011;10079;55.740;37.662;2023-06-01T17:21:49;12.67;;;3.43;;
19836;SDS011;10079;55.740;37.662;2023-06-01T17:35:06;3.87;;;2.50;;
19836;SDS011;10079;55.740;37.662;2023-06-01T17:37:48;8.63;;;3.00;;
19836;SDS011;10079;55.740;37.662;2023-06-01T17:40:28;6.60;;;2.27;;
19836;SDS011;10079;55.740;37.662;2023-06-01T17:43:10;4.40;;;2.73;;
19836;SDS011;10079;55.740;37.662;2023-06-01T17:46:02;5.23;;;2.57;;
19836;SDS011;10079;55.740;37.662;2023-06-01T17:48:43;5.33;;;2.90;;
19836;SDS011;10079;55.740;37.662;2023-06-01T17:51:24;3.93;;;2.60;;
19836;SDS011;10079;55.740;37.662;2023-06-01T17:54:04;6.27;;;3.20;;
19836;SDS011;10079;55.740;37.662;2023-06-01T17:56:57;8.53;;;3.00;;
19836;SDS011;10079;55.740;37.662;2023-06-01T17:59:39;8.23;;;2.50;;
19836;SDS011;10079;55.740;37.662;2023-06-01T18:02:21;5.87;;;2.53;;
19836;SDS011;10079;55.740;37.662;2023-06-01T18:05:01;4.07;;;2.20;;
19836;SDS011;10079;55.740;37.662;2023-06-01T18:07:42;7.33;;;2.43;;
19836;SDS011;10079;55.740;37.662;2023-06-01T18:10:29;4.60;;;2.30;;
19836;SDS011;10079;55.740;37.662;2023-06-01T18:13:14;6.10;;;2.50;;
19836;SDS011;10079;55.740;37.662;2023-06-01T18:15:58;6.30;;;2.50;;
19836;SDS011;10079;55.740;37.662;2023-06-01T18:29:30;4.43;;;2.20;;
19836;SDS011;10079;55.740;37.662;2023-06-01T18:32:15;5.20;;;2.50;;
19836;SDS011;10079;55.740;37.662;2023-06-01T18:45:47;4.70;;;2.60;;
19836;SDS011;10079;55.740;37.662;2023-06-01T18:48:28;5.87;;;2.70;;
19836;SDS011;10079;55.740;37.662;2023-06-01T18:51:13;6.57;;;3.03;;
19836;SDS011;10079;55.740;37.662;2023-06-01T18:53:53;6.47;;;2.60;;
19836;SDS011;10079;55.740;37.662;2023-06-01T18:56:42;6.17;;;2.30;;
19836;SDS011;10079;55.740;37.662;2023-06-01T18:59:32;6.23;;;2.90;;
19836;SDS011;10079;55.740;37.662;2023-06-01T19:02:16;5.43;;;2.47;;
19836;SDS011;10079;55.740;37.662;2023-06-01T19:05:00;6.33;;;2.57;;
19836;SDS011;10079;55.740;37.662;2023-06-01T19:07:41;6.13;;;2.87;;
19836;SDS011;10079;55.740;37.662;2023-06-01T19:10:50;4.70;;;2.57;;
19836;SDS011;10079;55.740;37.662;2023-06-01T19:13:47;3.83;;;2.30;;
19836;SDS011;10079;55.740;37.662;2023-06-01T19:16:30;6.77;;;2.60;;
19836;SDS011;10079;55.740;37.662;2023-06-01T19:35:26;5.57;;;2.60;;
19836;SDS011;10079;55.740;37.662;2023-06-01T19:38:12;5.97;;;2.83;;
19836;SDS011;10079;55.740;37.662;2023-06-01T19:40:54;5.77;;;3.03;;
19836;SDS011;10079;55.740;37.662;2023-06-01T19:43:40;5.17;;;2.70;;
19836;SDS011;10079;55.740;37.662;2023-06-01T19:46:24;8.13;;;3.20;;
19836;SDS011;10079;55.740;37.662;2023-06-01T19:49:05;9.03;;;3.63;;
19836;SDS011;10079;55.740;37.662;2023-06-01T19:51:46;8.73;;;4.00;;
19836;SDS011;10079;55.740;37.662;2023-06-01T19:54:26;9.30;;;4.97;;
19836;SDS011;10079;55.740;37.662;2023-06-01T19:57:15;10.73;;;5.13;;